sensor_id;sensor_type;location;lat;lon;timestamp;temperature;humidity
10536;DHT22;5316;49.538;8.352;2022-09-12T00:00:36;16.40;99.90
10536;DHT22;5316;49.538;8.352;2022-09-12T00:03:03;16.40;99.90
10536;DHT22;5316;49.538;8.352;2022-09-12T00:05:29;16.40;99.90
10536;DHT22;5316;49.538;8.352;2022-09-12T00:07:57;16.40;99.90
10536;DHT22;5316;49.538;8.352;2022-09-12T00:10:24;16.40;99.90
10536;DHT22;5316;49.538;8.352;2022-09-12T00:12:51;16.40;99.90
10536;DHT22;5316;49.538;8.352;2022-09-12T00:15:18;16.30;99.90
10536;DHT22;5316;49.538;8.352;2022-09-12T00:17:46;16.30;99.90
10536;DHT22;5316;49.538;8.352;2022-09-12T00:20:13;16.30;99.90
10536;DHT22;5316;49.538;8.352;2022-09-12T00:22:39;16.20;99.90
10536;DHT22;5316;49.538;8.352;2022-09-12T00:25:06;16.20;99.90
10536;DHT22;5316;49.538;8.352;2022-09-12T00:27:33;16.10;99.90
10536;DHT22;5316;49.538;8.352;2022-09-12T00:30:00;16.10;99.90
10536;DHT22;5316;49.538;8.352;2022-09-12T00:32:27;16.10;99.90
10536;DHT22;5316;49.538;8.352;2022-09-12T00:34:55;16.00;99.90
10536;DHT22;5316;49.538;8.352;2022-09-12T00:37:21;16.10;99.90
10536;DHT22;5316;49.538;8.352;2022-09-12T00:39:48;16.00;99.90
10536;DHT22;5316;49.538;8.352;2022-09-12T00:42:15;16.00;99.90
10536;DHT22;5316;49.538;8.352;2022-09-12T00:44:48;16.00;99.90
10536;DHT22;5316;49.538;8.352;2022-09-12T00:47:21;16.00;99.90
10536;DHT22;5316;49.538;8.352;2022-09-12T00:49:51;15.90;99.90
10536;DHT22;5316;49.538;8.352;2022-09-12T00:52:23;15.90;99.90
10536;DHT22;5316;49.538;8.352;2022-09-12T00:54:54;15.80;99.90
10536;DHT22;5316;49.538;8.352;2022-09-12T00:57:25;15.70;99.90
10536;DHT22;5316;49.538;8.352;2022-09-12T00:59:57;15.60;99.90
10536;DHT22;5316;49.538;8.352;2022-09-12T01:02:24;15.50;99.90
10536;DHT22;5316;49.538;8.352;2022-09-12T01:04:52;15.50;99.90
10536;DHT22;5316;49.538;8.352;2022-09-12T01:07:20;15.40;99.90
10536;DHT22;5316;49.538;8.352;2022-09-12T01:09:48;15.50;99.90
10536;DHT22;5316;49.538;8.352;2022-09-12T01:12:16;15.40;99.90
10536;DHT22;5316;49.538;8.352;2022-09-12T01:14:43;15.40;99.90
10536;DHT22;5316;49.538;8.352;2022-09-12T01:17:12;15.40;99.90
10536;DHT22;5316;49.538;8.352;2022-09-12T01:20:07;15.30;99.90
10536;DHT22;5316;49.538;8.352;2022-09-12T01:23:02;15.20;99.90
10536;DHT22;5316;49.538;8.352;2022-09-12T01:25:40;15.20;99.90
10536;DHT22;5316;49.538;8.352;2022-09-12T01:31:08;15.10;99.90
10536;DHT22;5316;49.538;8.352;2022-09-12T01:33:52;15.10;99.90
10536;DHT22;5316;49.538;8.352;2022-09-12T01:36:38;15.00;99.90
10536;DHT22;5316;49.538;8.352;2022-09-12T01:39:13;15.10;99.90
10536;DHT22;5316;49.538;8.352;2022-09-12T01:41:48;15.00;99.90
10536;DHT22;5316;49.538;8.352;2022-09-12T01:44:25;15.10;99.90
10536;DHT22;5316;49.538;8.352;2022-09-12T01:46:58;15.00;99.90
10536;DHT22;5316;49.538;8.352;2022-09-12T01:49:28;15.00;99.90
10536;DHT22;5316;49.538;8.352;2022-09-12T01:52:02;15.00;99.90
10536;DHT22;5316;49.538;8.352;2022-09-12T01:54:34;15.00;99.90
10536;DHT22;5316;49.538;8.352;2022-09-12T01:57:08;15.00;99.90
10536;DHT22;5316;49.538;8.352;2022-09-12T01:59:39;15.00;99.90
10536;DHT22;5316;49.538;8.352;2022-09-12T02:02:11;15.00;99.90
10536;DHT22;5316;49.538;8.352;2022-09-12T02:04:43;15.10;99.90
10536;DHT22;5316;49.538;8.352;2022-09-12T02:07:17;15.00;99.90
10536;DHT22;5316;49.538;8.352;2022-09-12T02:09:47;14.90;99.90
10536;DHT22;5316;49.538;8.352;2022-09-12T02:12:18;14.80;99.90
10536;DHT22;5316;49.538;8.352;2022-09-12T02:14:49;14.80;99.90
10536;DHT22;5316;49.538;8.352;2022-09-12T02:17:22;14.80;99.90
10536;DHT22;5316;49.538;8.352;2022-09-12T02:19:53;14.70;99.90
10536;DHT22;5316;49.538;8.352;2022-09-12T02:22:22;14.70;99.90
10536;DHT22;5316;49.538;8.352;2022-09-12T02:24:53;14.70;99.90
10536;DHT22;5316;49.538;8.352;2022-09-12T02:27:23;14.70;99.90
10536;DHT22;5316;49.538;8.352;2022-09-12T02:29:52;14.70;99.90
10536;DHT22;5316;49.538;8.352;2022-09-12T02:32:27;14.70;99.90
10536;DHT22;5316;49.538;8.352;2022-09-12T02:34:58;14.70;99.90
10536;DHT22;5316;49.538;8.352;2022-09-12T02:37:35;14.70;99.90
10536;DHT22;5316;49.538;8.352;2022-09-12T02:40:04;14.70;99.90
10536;DHT22;5316;49.538;8.352;2022-09-12T02:42:31;14.70;99.90
10536;DHT22;5316;49.538;8.352;2022-09-12T02:44:58;14.70;99.90
10536;DHT22;5316;49.538;8.352;2022-09-12T02:47:30;14.60;99.90
10536;DHT22;5316;49.538;8.352;2022-09-12T02:49:59;14.60;99.90
10536;DHT22;5316;49.538;8.352;2022-09-12T02:52:27;14.50;99.90
10536;DHT22;5316;49.538;8.352;2022-09-12T02:54:54;14.50;99.90
10536;DHT22;5316;49.538;8.352;2022-09-12T02:57:23;14.40;99.90
10536;DHT22;5316;49.538;8.352;2022-09-12T02:59:52;14.40;99.90
10536;DHT22;5316;49.538;8.352;2022-09-12T03:02:31;14.40;99.90
10536;DHT22;5316;49.538;8.352;2022-09-12T03:05:23;14.30;99.90
10536;DHT22;5316;49.538;8.352;2022-09-12T03:08:14;14.30;99.90
10536;DHT22;5316;49.538;8.352;2022-09-12T03:11:04;14.30;99.90
10536;DHT22;5316;49.538;8.352;2022-09-12T03:13:39;14.30;99.90
10536;DHT22;5316;49.538;8.352;2022-09-12T03:16:18;14.40;99.90
10536;DHT22;5316;49.538;8.352;2022-09-12T03:18:57;14.40;99.90
10536;DHT22;5316;49.538;8.352;2022-09-12T03:21:29;14.40;99.90
10536;DHT22;5316;49.538;8.352;2022-09-12T03:24:07;14.40;99.90
10536;DHT22;5316;49.538;8.352;2022-09-12T03:26:40;14.30;99.90
10536;DHT22;5316;49.538;8.352;2022-09-12T03:29:09;14.30;99.90
10536;DHT22;5316;49.538;8.352;2022-09-12T03:31:37;14.30;99.90
10536;DHT22;5316;49.538;8.352;2022-09-12T03:34:14;14.30;99.90
10536;DHT22;5316;49.538;8.352;2022-09-12T03:36:41;14.30;99.90
10536;DHT22;5316;49.538;8.352;2022-09-12T03:39:08;14.30;99.90
10536;DHT22;5316;49.538;8.352;2022-09-12T03:41:35;14.20;99.90
10536;DHT22;5316;49.538;8.352;2022-09-12T03:44:03;14.20;99.90
10536;DHT22;5316;49.538;8.352;2022-09-12T03:46:30;14.20;99.90
10536;DHT22;5316;49.538;8.352;2022-09-12T03:48:57;14.20;99.90
10536;DHT22;5316;49.538;8.352;2022-09-12T03:51:25;14.10;99.90
10536;DHT22;5316;49.538;8.352;2022-09-12T03:53:54;14.10;99.90
10536;DHT22;5316;49.538;8.352;2022-09-12T03:56:21;14.10;99.90
10536;DHT22;5316;49.538;8.352;2022-09-12T03:58:48;14.00;99.90
10536;DHT22;5316;49.538;8.352;2022-09-12T04:01:18;13.90;99.90
10536;DHT22;5316;49.538;8.352;2022-09-12T04:03:47;13.90;99.90
10536;DHT22;5316;49.538;8.352;2022-09-12T04:06:15;13.90;99.90
10536;DHT22;5316;49.538;8.352;2022-09-12T04:08:47;13.80;99.90
10536;DHT22;5316;49.538;8.352;2022-09-12T04:11:15;13.90;99.90
10536;DHT22;5316;49.538;8.352;2022-09-12T04:13:44;13.90;99.90
10536;DHT22;5316;49.538;8.352;2022-09-12T04:16:12;13.90;99.90
10536;DHT22;5316;49.538;8.352;2022-09-12T04:18:39;13.90;99.90
10536;DHT22;5316;49.538;8.352;2022-09-12T04:21:08;13.90;99.90
10536;DHT22;5316;49.538;8.352;2022-09-12T04:23:35;13.90;99.90
10536;DHT22;5316;49.538;8.352;2022-09-12T04:26:06;13.90;99.90
10536;DHT22;5316;49.538;8.352;2022-09-12T04:28:33;13.90;99.90
10536;DHT22;5316;49.538;8.352;2022-09-12T04:31:01;13.90;99.90
10536;DHT22;5316;49.538;8.352;2022-09-12T04:33:29;13.80;99.90
10536;DHT22;5316;49.538;8.352;2022-09-12T04:36:02;13.80;99.90
10536;DHT22;5316;49.538;8.352;2022-09-12T04:38:29;13.70;99.90
10536;DHT22;5316;49.538;8.352;2022-09-12T04:40:56;13.70;99.90
10536;DHT22;5316;49.538;8.352;2022-09-12T04:43:25;13.70;99.90
10536;DHT22;5316;49.538;8.352;2022-09-12T04:45:52;13.70;99.90
10536;DHT22;5316;49.538;8.352;2022-09-12T04:48:19;13.70;99.90
10536;DHT22;5316;49.538;8.352;2022-09-12T04:50:46;13.70;99.90
10536;DHT22;5316;49.538;8.352;2022-09-12T04:53:13;13.70;99.90
10536;DHT22;5316;49.538;8.352;2022-09-12T04:55:41;13.60;99.90
10536;DHT22;5316;49.538;8.352;2022-09-12T04:58:08;13.60;99.90
10536;DHT22;5316;49.538;8.352;2022-09-12T05:00:36;13.60;99.90
10536;DHT22;5316;49.538;8.352;2022-09-12T05:03:03;13.60;99.90
10536;DHT22;5316;49.538;8.352;2022-09-12T05:05:30;13.60;99.90
10536;DHT22;5316;49.538;8.352;2022-09-12T05:07:57;13.60;99.90
10536;DHT22;5316;49.538;8.352;2022-09-12T05:10:24;13.70;99.90
10536;DHT22;5316;49.538;8.352;2022-09-12T05:12:52;13.60;99.90
10536;DHT22;5316;49.538;8.352;2022-09-12T05:15:18;13.60;99.90
10536;DHT22;5316;49.538;8.352;2022-09-12T05:17:47;13.60;99.90
10536;DHT22;5316;49.538;8.352;2022-09-12T05:20:14;13.60;99.90
10536;DHT22;5316;49.538;8.352;2022-09-12T05:22:42;13.60;99.90
10536;DHT22;5316;49.538;8.352;2022-09-12T05:25:11;13.70;99.90
10536;DHT22;5316;49.538;8.352;2022-09-12T05:27:38;13.70;99.90
10536;DHT22;5316;49.538;8.352;2022-09-12T05:30:06;13.70;99.90
10536;DHT22;5316;49.538;8.352;2022-09-12T05:32:34;13.70;99.90
10536;DHT22;5316;49.538;8.352;2022-09-12T05:35:03;13.80;99.90
10536;DHT22;5316;49.538;8.352;2022-09-12T05:37:41;13.80;99.90
10536;DHT22;5316;49.538;8.352;2022-09-12T05:40:09;13.80;99.90
10536;DHT22;5316;49.538;8.352;2022-09-12T05:42:39;13.80;99.90
10536;DHT22;5316;49.538;8.352;2022-09-12T05:45:07;13.80;99.90
10536;DHT22;5316;49.538;8.352;2022-09-12T05:47:34;13.80;99.90
10536;DHT22;5316;49.538;8.352;2022-09-12T05:50:03;13.80;99.90
10536;DHT22;5316;49.538;8.352;2022-09-12T05:52:35;13.90;99.90
10536;DHT22;5316;49.538;8.352;2022-09-12T05:55:02;13.80;99.90
10536;DHT22;5316;49.538;8.352;2022-09-12T05:57:29;13.90;99.90
10536;DHT22;5316;49.538;8.352;2022-09-12T05:59:58;13.90;99.90
10536;DHT22;5316;49.538;8.352;2022-09-12T06:02:25;14.00;99.90
10536;DHT22;5316;49.538;8.352;2022-09-12T06:04:53;14.10;99.90
10536;DHT22;5316;49.538;8.352;2022-09-12T06:07:22;14.10;99.90
10536;DHT22;5316;49.538;8.352;2022-09-12T06:09:49;14.20;99.90
10536;DHT22;5316;49.538;8.352;2022-09-12T06:12:16;14.20;99.90
10536;DHT22;5316;49.538;8.352;2022-09-12T06:14:44;14.30;99.90
10536;DHT22;5316;49.538;8.352;2022-09-12T06:17:12;14.30;99.90
10536;DHT22;5316;49.538;8.352;2022-09-12T06:19:39;14.30;99.90
10536;DHT22;5316;49.538;8.352;2022-09-12T06:22:06;14.40;99.90
10536;DHT22;5316;49.538;8.352;2022-09-12T06:24:34;14.40;99.90
10536;DHT22;5316;49.538;8.352;2022-09-12T06:27:01;14.40;99.90
10536;DHT22;5316;49.538;8.352;2022-09-12T06:29:28;14.40;99.90
10536;DHT22;5316;49.538;8.352;2022-09-12T06:31:57;14.50;99.90
10536;DHT22;5316;49.538;8.352;2022-09-12T06:34:24;14.60;99.90
10536;DHT22;5316;49.538;8.352;2022-09-12T06:36:52;14.60;99.90
10536;DHT22;5316;49.538;8.352;2022-09-12T06:39:21;14.60;99.90
10536;DHT22;5316;49.538;8.352;2022-09-12T06:41:50;14.70;99.90
10536;DHT22;5316;49.538;8.352;2022-09-12T06:44:18;14.70;99.90
10536;DHT22;5316;49.538;8.352;2022-09-12T06:46:45;14.70;99.90
10536;DHT22;5316;49.538;8.352;2022-09-12T06:49:13;14.80;99.90
10536;DHT22;5316;49.538;8.352;2022-09-12T06:51:40;14.70;99.90
10536;DHT22;5316;49.538;8.352;2022-09-12T06:54:08;14.70;99.90
10536;DHT22;5316;49.538;8.352;2022-09-12T06:56:37;14.70;99.90
10536;DHT22;5316;49.538;8.352;2022-09-12T06:59:06;14.60;99.90
10536;DHT22;5316;49.538;8.352;2022-09-12T07:01:33;14.70;99.90
10536;DHT22;5316;49.538;8.352;2022-09-12T07:04:02;14.80;99.90
10536;DHT22;5316;49.538;8.352;2022-09-12T07:06:34;14.80;99.90
10536;DHT22;5316;49.538;8.352;2022-09-12T07:09:05;15.00;99.90
10536;DHT22;5316;49.538;8.352;2022-09-12T07:11:34;15.10;99.90
10536;DHT22;5316;49.538;8.352;2022-09-12T07:14:02;15.10;99.90
10536;DHT22;5316;49.538;8.352;2022-09-12T07:16:31;15.10;99.90
10536;DHT22;5316;49.538;8.352;2022-09-12T07:19:01;15.20;99.90
10536;DHT22;5316;49.538;8.352;2022-09-12T07:21:29;15.20;99.90
10536;DHT22;5316;49.538;8.352;2022-09-12T07:23:56;15.20;99.90
10536;DHT22;5316;49.538;8.352;2022-09-12T07:26:25;15.20;99.90
10536;DHT22;5316;49.538;8.352;2022-09-12T07:28:54;15.20;99.90
10536;DHT22;5316;49.538;8.352;2022-09-12T07:31:23;15.30;99.90
10536;DHT22;5316;49.538;8.352;2022-09-12T07:33:52;15.30;99.90
10536;DHT22;5316;49.538;8.352;2022-09-12T07:36:21;15.30;99.90
10536;DHT22;5316;49.538;8.352;2022-09-12T07:38:58;15.30;99.90
10536;DHT22;5316;49.538;8.352;2022-09-12T07:41:28;15.40;99.90
10536;DHT22;5316;49.538;8.352;2022-09-12T07:43:58;15.40;99.90
10536;DHT22;5316;49.538;8.352;2022-09-12T07:46:26;15.50;99.90
10536;DHT22;5316;49.538;8.352;2022-09-12T07:48:56;15.60;99.90
10536;DHT22;5316;49.538;8.352;2022-09-12T07:51:25;15.70;99.90
10536;DHT22;5316;49.538;8.352;2022-09-12T07:53:54;15.80;99.90
10536;DHT22;5316;49.538;8.352;2022-09-12T07:56:22;15.80;99.90
10536;DHT22;5316;49.538;8.352;2022-09-12T07:58:54;15.90;99.90
10536;DHT22;5316;49.538;8.352;2022-09-12T08:01:21;15.90;99.90
10536;DHT22;5316;49.538;8.352;2022-09-12T08:03:52;16.00;99.90
10536;DHT22;5316;49.538;8.352;2022-09-12T08:06:25;16.00;99.90
10536;DHT22;5316;49.538;8.352;2022-09-12T08:08:57;16.10;99.90
10536;DHT22;5316;49.538;8.352;2022-09-12T08:11:29;16.20;99.90
10536;DHT22;5316;49.538;8.352;2022-09-12T08:13:56;16.20;99.90
10536;DHT22;5316;49.538;8.352;2022-09-12T08:16:25;16.30;99.90
10536;DHT22;5316;49.538;8.352;2022-09-12T08:18:52;16.40;99.90
10536;DHT22;5316;49.538;8.352;2022-09-12T08:21:24;16.50;99.90
10536;DHT22;5316;49.538;8.352;2022-09-12T08:23:53;16.50;99.90
10536;DHT22;5316;49.538;8.352;2022-09-12T08:26:20;16.60;99.90
10536;DHT22;5316;49.538;8.352;2022-09-12T08:28:48;16.60;99.90
10536;DHT22;5316;49.538;8.352;2022-09-12T08:31:17;16.70;99.90
10536;DHT22;5316;49.538;8.352;2022-09-12T08:33:45;16.80;99.90
10536;DHT22;5316;49.538;8.352;2022-09-12T08:36:13;16.80;99.90
10536;DHT22;5316;49.538;8.352;2022-09-12T08:38:46;16.80;99.90
10536;DHT22;5316;49.538;8.352;2022-09-12T08:41:22;16.90;99.90
10536;DHT22;5316;49.538;8.352;2022-09-12T08:44:09;17.10;99.90
10536;DHT22;5316;49.538;8.352;2022-09-12T08:46:45;17.20;99.90
10536;DHT22;5316;49.538;8.352;2022-09-12T08:49:24;17.40;99.90
10536;DHT22;5316;49.538;8.352;2022-09-12T08:51:52;17.60;99.90
10536;DHT22;5316;49.538;8.352;2022-09-12T08:54:25;17.70;99.90
10536;DHT22;5316;49.538;8.352;2022-09-12T08:56:57;17.90;99.90
10536;DHT22;5316;49.538;8.352;2022-09-12T08:59:26;18.10;99.90
10536;DHT22;5316;49.538;8.352;2022-09-12T09:01:57;18.20;99.90
10536;DHT22;5316;49.538;8.352;2022-09-12T09:04:35;18.20;99.90
10536;DHT22;5316;49.538;8.352;2022-09-12T09:07:24;18.30;99.90
10536;DHT22;5316;49.538;8.352;2022-09-12T09:10:06;18.40;99.90
10536;DHT22;5316;49.538;8.352;2022-09-12T09:12:42;18.60;99.90
10536;DHT22;5316;49.538;8.352;2022-09-12T09:15:22;18.70;99.90
10536;DHT22;5316;49.538;8.352;2022-09-12T09:17:54;18.80;99.90
10536;DHT22;5316;49.538;8.352;2022-09-12T09:20:28;18.80;99.90
10536;DHT22;5316;49.538;8.352;2022-09-12T09:22:59;18.90;99.90
10536;DHT22;5316;49.538;8.352;2022-09-12T09:25:39;19.00;99.90
10536;DHT22;5316;49.538;8.352;2022-09-12T09:28:13;19.10;99.90
10536;DHT22;5316;49.538;8.352;2022-09-12T09:30:42;19.20;99.90
10536;DHT22;5316;49.538;8.352;2022-09-12T09:33:17;19.20;99.90
10536;DHT22;5316;49.538;8.352;2022-09-12T09:35:46;19.20;99.90
10536;DHT22;5316;49.538;8.352;2022-09-12T09:38:23;19.30;99.90
10536;DHT22;5316;49.538;8.352;2022-09-12T09:41:00;19.40;99.90
10536;DHT22;5316;49.538;8.352;2022-09-12T09:43:30;19.50;99.90
10536;DHT22;5316;49.538;8.352;2022-09-12T09:45:57;19.60;99.90
10536;DHT22;5316;49.538;8.352;2022-09-12T09:48:27;19.70;99.90
10536;DHT22;5316;49.538;8.352;2022-09-12T09:50:57;19.80;99.90
10536;DHT22;5316;49.538;8.352;2022-09-12T09:53:32;19.90;99.90
10536;DHT22;5316;49.538;8.352;2022-09-12T09:56:09;19.90;99.90
10536;DHT22;5316;49.538;8.352;2022-09-12T09:58:38;20.00;99.90
10536;DHT22;5316;49.538;8.352;2022-09-12T10:01:13;20.10;99.90
10536;DHT22;5316;49.538;8.352;2022-09-12T10:03:47;20.20;99.90
10536;DHT22;5316;49.538;8.352;2022-09-12T10:06:25;20.30;99.90
10536;DHT22;5316;49.538;8.352;2022-09-12T10:09:04;20.40;99.90
10536;DHT22;5316;49.538;8.352;2022-09-12T10:11:33;20.40;99.90
10536;DHT22;5316;49.538;8.352;2022-09-12T10:14:01;20.50;99.90
10536;DHT22;5316;49.538;8.352;2022-09-12T10:16:30;20.60;99.90
10536;DHT22;5316;49.538;8.352;2022-09-12T10:18:58;20.60;99.90
10536;DHT22;5316;49.538;8.352;2022-09-12T10:21:33;20.70;99.90
10536;DHT22;5316;49.538;8.352;2022-09-12T10:24:04;20.70;99.90
10536;DHT22;5316;49.538;8.352;2022-09-12T10:26:36;20.80;99.90
10536;DHT22;5316;49.538;8.352;2022-09-12T10:29:10;20.80;99.90
10536;DHT22;5316;49.538;8.352;2022-09-12T10:31:46;20.90;99.90
10536;DHT22;5316;49.538;8.352;2022-09-12T10:34:24;21.00;99.90
10536;DHT22;5316;49.538;8.352;2022-09-12T10:37:01;21.10;99.90
10536;DHT22;5316;49.538;8.352;2022-09-12T10:39:28;21.20;99.90
10536;DHT22;5316;49.538;8.352;2022-09-12T10:41:56;21.30;99.90
10536;DHT22;5316;49.538;8.352;2022-09-12T10:44:26;21.30;99.90
10536;DHT22;5316;49.538;8.352;2022-09-12T10:46:53;21.40;99.90
10536;DHT22;5316;49.538;8.352;2022-09-12T10:49:23;21.40;99.90
10536;DHT22;5316;49.538;8.352;2022-09-12T10:51:51;21.50;99.90
10536;DHT22;5316;49.538;8.352;2022-09-12T10:54:21;21.50;99.90
10536;DHT22;5316;49.538;8.352;2022-09-12T10:57:07;21.50;99.90
10536;DHT22;5316;49.538;8.352;2022-09-12T10:59:56;21.60;99.90
10536;DHT22;5316;49.538;8.352;2022-09-12T11:02:27;21.80;99.90
10536;DHT22;5316;49.538;8.352;2022-09-12T11:05:01;21.90;99.90
10536;DHT22;5316;49.538;8.352;2022-09-12T11:07:45;22.00;99.90
10536;DHT22;5316;49.538;8.352;2022-09-12T11:10:23;22.10;99.90
10536;DHT22;5316;49.538;8.352;2022-09-12T11:13:02;22.20;99.90
10536;DHT22;5316;49.538;8.352;2022-09-12T11:15:43;22.30;99.90
10536;DHT22;5316;49.538;8.352;2022-09-12T11:18:22;22.30;99.90
10536;DHT22;5316;49.538;8.352;2022-09-12T11:21:00;22.40;99.90
10536;DHT22;5316;49.538;8.352;2022-09-12T11:24:06;22.40;99.90
10536;DHT22;5316;49.538;8.352;2022-09-12T11:26:46;22.30;99.90
10536;DHT22;5316;49.538;8.352;2022-09-12T11:29:26;22.30;99.90
10536;DHT22;5316;49.538;8.352;2022-09-12T11:34:57;22.40;99.90
10536;DHT22;5316;49.538;8.352;2022-09-12T11:37:42;22.50;99.90
10536;DHT22;5316;49.538;8.352;2022-09-12T11:40:22;22.60;99.90
10536;DHT22;5316;49.538;8.352;2022-09-12T11:42:56;22.70;99.90
10536;DHT22;5316;49.538;8.352;2022-09-12T11:45:29;22.80;99.90
10536;DHT22;5316;49.538;8.352;2022-09-12T11:48:02;22.80;99.90
10536;DHT22;5316;49.538;8.352;2022-09-12T11:50:32;22.80;99.90
10536;DHT22;5316;49.538;8.352;2022-09-12T11:53:04;22.90;99.90
10536;DHT22;5316;49.538;8.352;2022-09-12T11:55:38;22.90;99.90
10536;DHT22;5316;49.538;8.352;2022-09-12T11:58:08;22.90;99.90
10536;DHT22;5316;49.538;8.352;2022-09-12T12:00:42;23.00;99.90
10536;DHT22;5316;49.538;8.352;2022-09-12T12:03:15;23.00;99.90
10536;DHT22;5316;49.538;8.352;2022-09-12T12:05:48;23.10;99.90
10536;DHT22;5316;49.538;8.352;2022-09-12T12:08:19;23.10;99.90
10536;DHT22;5316;49.538;8.352;2022-09-12T12:10:49;23.10;99.90
10536;DHT22;5316;49.538;8.352;2022-09-12T12:13:21;23.20;99.90
10536;DHT22;5316;49.538;8.352;2022-09-12T12:15:54;23.20;99.90
10536;DHT22;5316;49.538;8.352;2022-09-12T12:18:23;23.20;99.90
10536;DHT22;5316;49.538;8.352;2022-09-12T12:20:50;23.30;99.90
10536;DHT22;5316;49.538;8.352;2022-09-12T12:23:23;23.40;99.90
10536;DHT22;5316;49.538;8.352;2022-09-12T12:25:52;23.40;99.90
10536;DHT22;5316;49.538;8.352;2022-09-12T12:31:21;23.70;99.90
10536;DHT22;5316;49.538;8.352;2022-09-12T12:34:03;23.70;99.90
10536;DHT22;5316;49.538;8.352;2022-09-12T12:36:40;23.70;99.90
10536;DHT22;5316;49.538;8.352;2022-09-12T12:45:58;24.00;99.10
10536;DHT22;5316;49.538;8.352;2022-09-12T12:51:35;24.30;98.00
10536;DHT22;5316;49.538;8.352;2022-09-12T12:54:04;24.50;97.10
10536;DHT22;5316;49.538;8.352;2022-09-12T12:56:38;24.60;94.50
10536;DHT22;5316;49.538;8.352;2022-09-12T12:59:16;24.80;95.80
10536;DHT22;5316;49.538;8.352;2022-09-12T13:01:48;24.90;96.80
10536;DHT22;5316;49.538;8.352;2022-09-12T13:04:18;25.20;94.80
10536;DHT22;5316;49.538;8.352;2022-09-12T13:06:55;25.30;93.30
10536;DHT22;5316;49.538;8.352;2022-09-12T13:09:26;25.40;94.40
10536;DHT22;5316;49.538;8.352;2022-09-12T13:12:00;25.60;93.20
10536;DHT22;5316;49.538;8.352;2022-09-12T13:14:35;25.90;91.20
10536;DHT22;5316;49.538;8.352;2022-09-12T13:17:04;26.00;85.70
10536;DHT22;5316;49.538;8.352;2022-09-12T13:19:35;26.20;81.10
10536;DHT22;5316;49.538;8.352;2022-09-12T13:22:05;26.40;81.80
10536;DHT22;5316;49.538;8.352;2022-09-12T13:24:34;26.50;82.80
10536;DHT22;5316;49.538;8.352;2022-09-12T13:27:16;26.70;83.90
10536;DHT22;5316;49.538;8.352;2022-09-12T13:29:42;27.10;79.90
10536;DHT22;5316;49.538;8.352;2022-09-12T13:32:09;27.30;79.50
10536;DHT22;5316;49.538;8.352;2022-09-12T13:34:49;27.40;78.20
10536;DHT22;5316;49.538;8.352;2022-09-12T13:37:39;27.70;77.80
10536;DHT22;5316;49.538;8.352;2022-09-12T13:40:27;28.00;76.90
10536;DHT22;5316;49.538;8.352;2022-09-12T13:43:08;28.10;75.70
10536;DHT22;5316;49.538;8.352;2022-09-12T13:45:38;28.30;68.70
10536;DHT22;5316;49.538;8.352;2022-09-12T13:48:12;28.40;61.00
10536;DHT22;5316;49.538;8.352;2022-09-12T13:50:47;28.60;61.10
10536;DHT22;5316;49.538;8.352;2022-09-12T13:53:18;28.70;58.60
10536;DHT22;5316;49.538;8.352;2022-09-12T13:55:47;28.90;59.10
10536;DHT22;5316;49.538;8.352;2022-09-12T13:58:19;29.00;58.50
10536;DHT22;5316;49.538;8.352;2022-09-12T14:00:58;29.20;57.90
10536;DHT22;5316;49.538;8.352;2022-09-12T14:03:30;29.10;56.90
10536;DHT22;5316;49.538;8.352;2022-09-12T14:06:16;29.30;57.90
10536;DHT22;5316;49.538;8.352;2022-09-12T14:08:45;29.40;55.80
10536;DHT22;5316;49.538;8.352;2022-09-12T14:11:22;29.60;56.90
10536;DHT22;5316;49.538;8.352;2022-09-12T14:13:50;29.80;56.40
10536;DHT22;5316;49.538;8.352;2022-09-12T14:16:19;30.00;55.10
10536;DHT22;5316;49.538;8.352;2022-09-12T14:18:49;30.10;54.60
10536;DHT22;5316;49.538;8.352;2022-09-12T14:21:32;30.30;52.30
10536;DHT22;5316;49.538;8.352;2022-09-12T14:24:00;30.40;51.90
10536;DHT22;5316;49.538;8.352;2022-09-12T14:26:36;30.70;51.40
10536;DHT22;5316;49.538;8.352;2022-09-12T14:29:06;30.70;51.50
10536;DHT22;5316;49.538;8.352;2022-09-12T14:31:35;30.80;51.40
10536;DHT22;5316;49.538;8.352;2022-09-12T14:34:12;31.00;51.70
10536;DHT22;5316;49.538;8.352;2022-09-12T14:36:44;31.30;50.80
10536;DHT22;5316;49.538;8.352;2022-09-12T14:39:20;31.40;50.70
10536;DHT22;5316;49.538;8.352;2022-09-12T14:41:50;31.50;49.50
10536;DHT22;5316;49.538;8.352;2022-09-12T14:44:26;31.40;49.10
10536;DHT22;5316;49.538;8.352;2022-09-12T14:46:54;31.70;49.00
10536;DHT22;5316;49.538;8.352;2022-09-12T14:49:25;31.80;49.40
10536;DHT22;5316;49.538;8.352;2022-09-12T14:51:57;31.60;47.90
10536;DHT22;5316;49.538;8.352;2022-09-12T14:54:35;31.70;49.00
10536;DHT22;5316;49.538;8.352;2022-09-12T14:57:14;31.90;47.50
10536;DHT22;5316;49.538;8.352;2022-09-12T14:59:43;32.30;46.70
10536;DHT22;5316;49.538;8.352;2022-09-12T15:02:20;32.60;46.60
10536;DHT22;5316;49.538;8.352;2022-09-12T15:04:48;32.70;44.70
10536;DHT22;5316;49.538;8.352;2022-09-12T15:07:24;32.80;44.80
10536;DHT22;5316;49.538;8.352;2022-09-12T15:09:54;33.10;44.70
10536;DHT22;5316;49.538;8.352;2022-09-12T15:12:21;33.30;44.50
10536;DHT22;5316;49.538;8.352;2022-09-12T15:14:49;33.70;42.70
10536;DHT22;5316;49.538;8.352;2022-09-12T15:17:15;33.80;41.60
10536;DHT22;5316;49.538;8.352;2022-09-12T15:19:42;34.00;41.10
10536;DHT22;5316;49.538;8.352;2022-09-12T15:22:19;33.80;40.80
10536;DHT22;5316;49.538;8.352;2022-09-12T15:24:47;33.80;41.10
10536;DHT22;5316;49.538;8.352;2022-09-12T15:27:14;34.20;40.40
10536;DHT22;5316;49.538;8.352;2022-09-12T15:29:42;34.40;39.90
10536;DHT22;5316;49.538;8.352;2022-09-12T15:32:13;34.40;39.60
10536;DHT22;5316;49.538;8.352;2022-09-12T15:34:48;34.60;38.60
10536;DHT22;5316;49.538;8.352;2022-09-12T15:37:16;34.50;38.80
10536;DHT22;5316;49.538;8.352;2022-09-12T15:39:45;34.50;38.20
10536;DHT22;5316;49.538;8.352;2022-09-12T15:42:12;34.50;38.10
10536;DHT22;5316;49.538;8.352;2022-09-12T15:44:40;34.40;39.30
10536;DHT22;5316;49.538;8.352;2022-09-12T15:47:07;34.40;38.50
10536;DHT22;5316;49.538;8.352;2022-09-12T15:49:42;34.60;38.50
10536;DHT22;5316;49.538;8.352;2022-09-12T15:52:14;34.50;37.30
10536;DHT22;5316;49.538;8.352;2022-09-12T15:54:42;34.60;36.70
10536;DHT22;5316;49.538;8.352;2022-09-12T15:57:13;34.80;37.60
10536;DHT22;5316;49.538;8.352;2022-09-12T15:59:40;34.90;38.00
10536;DHT22;5316;49.538;8.352;2022-09-12T16:02:16;35.10;37.50
10536;DHT22;5316;49.538;8.352;2022-09-12T16:04:42;35.40;37.10
10536;DHT22;5316;49.538;8.352;2022-09-12T16:07:13;35.50;36.80
10536;DHT22;5316;49.538;8.352;2022-09-12T16:09:41;35.30;36.80
10536;DHT22;5316;49.538;8.352;2022-09-12T16:12:10;35.40;36.20
10536;DHT22;5316;49.538;8.352;2022-09-12T16:14:39;35.10;36.20
10536;DHT22;5316;49.538;8.352;2022-09-12T16:17:06;35.00;36.90
10536;DHT22;5316;49.538;8.352;2022-09-12T16:19:33;34.90;36.50
10536;DHT22;5316;49.538;8.352;2022-09-12T16:22:03;34.90;36.60
10536;DHT22;5316;49.538;8.352;2022-09-12T16:24:31;34.80;36.40
10536;DHT22;5316;49.538;8.352;2022-09-12T16:26:59;34.50;36.50
10536;DHT22;5316;49.538;8.352;2022-09-12T16:29:27;34.00;37.30